sensor_id;sensor_type;location;lat;lon;timestamp;P1;durP1;ratioP1;P2;durP2;ratioP2
16524;SDS011;8375;33.594;-117.718;2022-10-19T00:01:22;1.92;;;1.50;;
16524;SDS011;8375;33.594;-117.718;2022-10-19T00:03:53;4.15;;;1.98;;
16524;SDS011;8375;33.594;-117.718;2022-10-19T00:06:24;2.13;;;1.63;;
16524;SDS011;8375;33.594;-117.718;2022-10-19T00:08:54;2.72;;;1.52;;
16524;SDS011;8375;33.594;-117.718;2022-10-19T00:11:24;1.90;;;1.60;;
16524;SDS011;8375;33.594;-117.718;2022-10-19T00:13:54;2.45;;;1.50;;
16524;SDS011;8375;33.594;-117.718;2022-10-19T00:16:26;1.92;;;1.60;;
16524;SDS011;8375;33.594;-117.718;2022-10-19T00:18:59;1.92;;;1.60;;
16524;SDS011;8375;33.594;-117.718;2022-10-19T00:21:39;3.10;;;1.60;;
16524;SDS011;8375;33.594;-117.718;2022-10-19T00:24:12;3.10;;;1.50;;
16524;SDS011;8375;33.594;-117.718;2022-10-19T00:26:42;1.77;;;1.67;;
16524;SDS011;8375;33.594;-117.718;2022-10-19T00:29:13;5.00;;;1.73;;
16524;SDS011;8375;33.594;-117.718;2022-10-19T00:31:43;1.75;;;1.63;;
16524;SDS011;8375;33.594;-117.718;2022-10-19T00:34:14;3.67;;;1.80;;
16524;SDS011;8375;33.594;-117.718;2022-10-19T00:36:43;4.07;;;2.13;;
16524;SDS011;8375;33.594;-117.718;2022-10-19T00:39:14;2.05;;;1.85;;
16524;SDS011;8375;33.594;-117.718;2022-10-19T00:41:45;1.83;;;1.67;;
16524;SDS011;8375;33.594;-117.718;2022-10-19T00:47:21;2.20;;;2.00;;
16524;SDS011;8375;33.594;-117.718;2022-10-19T00:49:57;3.33;;;2.00;;
16524;SDS011;8375;33.594;-117.718;2022-10-19T00:52:27;3.38;;;2.70;;
16524;SDS011;8375;33.594;-117.718;2022-10-19T00:54:57;3.97;;;2.40;;
16524;SDS011;8375;33.594;-117.718;2022-10-19T00:57:27;4.05;;;2.78;;
16524;SDS011;8375;33.594;-117.718;2022-10-19T00:59:58;4.10;;;2.63;;
16524;SDS011;8375;33.594;-117.718;2022-10-19T01:02:29;3.75;;;3.05;;
16524;SDS011;8375;33.594;-117.718;2022-10-19T01:05:00;3.80;;;2.80;;
16524;SDS011;8375;33.594;-117.718;2022-10-19T01:07:29;11.73;;;4.18;;
16524;SDS011;8375;33.594;-117.718;2022-10-19T01:09:58;5.57;;;2.90;;
16524;SDS011;8375;33.594;-117.718;2022-10-19T01:12:35;4.30;;;2.90;;
16524;SDS011;8375;33.594;-117.718;2022-10-19T01:15:33;5.10;;;3.10;;
16524;SDS011;8375;33.594;-117.718;2022-10-19T01:18:13;4.78;;;2.78;;
16524;SDS011;8375;33.594;-117.718;2022-10-19T01:21:06;5.70;;;3.13;;
16524;SDS011;8375;33.594;-117.718;2022-10-19T01:27:09;4.40;;;2.80;;
16524;SDS011;8375;33.594;-117.718;2022-10-19T01:30:16;3.30;;;2.95;;
16524;SDS011;8375;33.594;-117.718;2022-10-19T01:32:59;5.32;;;2.90;;
16524;SDS011;8375;33.594;-117.718;2022-10-19T01:35:38;4.50;;;3.30;;
16524;SDS011;8375;33.594;-117.718;2022-10-19T01:38:16;3.85;;;2.90;;
16524;SDS011;8375;33.594;-117.718;2022-10-19T01:40:59;5.20;;;3.38;;
16524;SDS011;8375;33.594;-117.718;2022-10-19T01:43:44;5.88;;;3.35;;
16524;SDS011;8375;33.594;-117.718;2022-10-19T01:46:20;7.47;;;3.30;;
16524;SDS011;8375;33.594;-117.718;2022-10-19T01:49:00;10.77;;;3.80;;
16524;SDS011;8375;33.594;-117.718;2022-10-19T01:51:34;8.05;;;4.20;;
16524;SDS011;8375;33.594;-117.718;2022-10-19T01:54:10;5.90;;;3.40;;
16524;SDS011;8375;33.594;-117.718;2022-10-19T01:56:46;5.15;;;3.80;;
16524;SDS011;8375;33.594;-117.718;2022-10-19T01:59:17;8.27;;;3.47;;
16524;SDS011;8375;33.594;-117.718;2022-10-19T02:01:49;4.97;;;3.33;;
16524;SDS011;8375;33.594;-117.718;2022-10-19T02:04:23;8.70;;;3.50;;
16524;SDS011;8375;33.594;-117.718;2022-10-19T02:06:58;4.90;;;3.10;;
16524;SDS011;8375;33.594;-117.718;2022-10-19T02:09:29;5.88;;;3.20;;
16524;SDS011;8375;33.594;-117.718;2022-10-19T02:12:00;5.63;;;2.95;;
16524;SDS011;8375;33.594;-117.718;2022-10-19T02:14:33;5.60;;;2.88;;
16524;SDS011;8375;33.594;-117.718;2022-10-19T02:17:19;3.95;;;3.33;;
16524;SDS011;8375;33.594;-117.718;2022-10-19T02:20:02;5.65;;;3.10;;
16524;SDS011;8375;33.594;-117.718;2022-10-19T02:22:31;6.53;;;3.70;;
16524;SDS011;8375;33.594;-117.718;2022-10-19T02:25:00;9.23;;;3.50;;
16524;SDS011;8375;33.594;-117.718;2022-10-19T02:27:29;6.28;;;3.90;;
16524;SDS011;8375;33.594;-117.718;2022-10-19T02:29:59;6.85;;;4.03;;
16524;SDS011;8375;33.594;-117.718;2022-10-19T02:32:32;6.68;;;3.70;;
16524;SDS011;8375;33.594;-117.718;2022-10-19T02:35:01;4.78;;;3.55;;
16524;SDS011;8375;33.594;-117.718;2022-10-19T02:37:31;9.40;;;4.30;;
16524;SDS011;8375;33.594;-117.718;2022-10-19T02:39:59;7.18;;;3.97;;
16524;SDS011;8375;33.594;-117.718;2022-10-19T02:42:32;4.97;;;3.80;;
16524;SDS011;8375;33.594;-117.718;2022-10-19T02:45:07;5.25;;;3.85;;
16524;SDS011;8375;33.594;-117.718;2022-10-19T02:47:48;6.78;;;4.03;;
16524;SDS011;8375;33.594;-117.718;2022-10-19T02:50:25;4.75;;;3.83;;
16524;SDS011;8375;33.594;-117.718;2022-10-19T02:53:00;7.43;;;3.97;;
16524;SDS011;8375;33.594;-117.718;2022-10-19T02:55:29;8.13;;;4.25;;
16524;SDS011;8375;33.594;-117.718;2022-10-19T02:57:58;5.80;;;3.80;;
16524;SDS011;8375;33.594;-117.718;2022-10-19T03:00:26;7.97;;;4.18;;
16524;SDS011;8375;33.594;-117.718;2022-10-19T03:03:03;8.25;;;4.38;;
16524;SDS011;8375;33.594;-117.718;2022-10-19T03:05:32;7.38;;;4.65;;
16524;SDS011;8375;33.594;-117.718;2022-10-19T03:08:01;7.85;;;4.95;;
16524;SDS011;8375;33.594;-117.718;2022-10-19T03:10:30;9.05;;;4.30;;
16524;SDS011;8375;33.594;-117.718;2022-10-19T03:13:00;9.35;;;4.68;;
16524;SDS011;8375;33.594;-117.718;2022-10-19T03:15:29;10.52;;;4.65;;
16524;SDS011;8375;33.594;-117.718;2022-10-19T03:18:01;11.20;;;4.75;;
16524;SDS011;8375;33.594;-117.718;2022-10-19T03:20:34;8.82;;;4.88;;
16524;SDS011;8375;33.594;-117.718;2022-10-19T03:23:03;6.82;;;4.80;;
16524;SDS011;8375;33.594;-117.718;2022-10-19T03:25:32;7.47;;;4.60;;
16524;SDS011;8375;33.594;-117.718;2022-10-19T03:28:00;7.68;;;5.00;;
16524;SDS011;8375;33.594;-117.718;2022-10-19T03:30:30;12.07;;;6.22;;
16524;SDS011;8375;33.594;-117.718;2022-10-19T03:33:00;14.93;;;7.25;;
16524;SDS011;8375;33.594;-117.718;2022-10-19T03:35:31;10.82;;;7.30;;
16524;SDS011;8375;33.594;-117.718;2022-10-19T03:38:00;11.00;;;6.88;;
16524;SDS011;8375;33.594;-117.718;2022-10-19T03:40:28;10.20;;;6.18;;
16524;SDS011;8375;33.594;-117.718;2022-10-19T03:42:57;8.88;;;6.05;;
16524;SDS011;8375;33.594;-117.718;2022-10-19T03:45:27;13.00;;;6.15;;
16524;SDS011;8375;33.594;-117.718;2022-10-19T03:47:56;8.60;;;5.47;;
16524;SDS011;8375;33.594;-117.718;2022-10-19T03:50:33;9.80;;;5.25;;
16524;SDS011;8375;33.594;-117.718;2022-10-19T03:53:04;9.95;;;5.05;;
16524;SDS011;8375;33.594;-117.718;2022-10-19T03:55:38;7.65;;;5.28;;
16524;SDS011;8375;33.594;-117.718;2022-10-19T03:58:10;8.68;;;4.97;;
16524;SDS011;8375;33.594;-117.718;2022-10-19T04:00:44;8.80;;;5.03;;
16524;SDS011;8375;33.594;-117.718;2022-10-19T04:03:17;8.13;;;5.43;;
16524;SDS011;8375;33.594;-117.718;2022-10-19T04:05:48;6.88;;;4.70;;
16524;SDS011;8375;33.594;-117.718;2022-10-19T04:08:26;10.30;;;5.53;;
16524;SDS011;8375;33.594;-117.718;2022-10-19T04:10:58;8.98;;;4.72;;
16524;SDS011;8375;33.594;-117.718;2022-10-19T04:13:27;13.95;;;5.50;;
16524;SDS011;8375;33.594;-117.718;2022-10-19T04:16:00;7.50;;;5.25;;
16524;SDS011;8375;33.594;-117.718;2022-10-19T04:18:29;9.43;;;5.50;;
16524;SDS011;8375;33.594;-117.718;2022-10-19T04:21:00;8.15;;;5.43;;
16524;SDS011;8375;33.594;-117.718;2022-10-19T04:23:30;13.55;;;5.80;;
16524;SDS011;8375;33.594;-117.718;2022-10-19T04:26:02;10.90;;;5.30;;
16524;SDS011;8375;33.594;-117.718;2022-10-19T04:28:34;13.48;;;5.53;;
16524;SDS011;8375;33.594;-117.718;2022-10-19T04:31:11;10.60;;;5.70;;
16524;SDS011;8375;33.594;-117.718;2022-10-19T04:33:43;7.88;;;5.05;;
16524;SDS011;8375;33.594;-117.718;2022-10-19T04:36:15;12.63;;;6.03;;
16524;SDS011;8375;33.594;-117.718;2022-10-19T04:38:44;10.73;;;5.88;;
16524;SDS011;8375;33.594;-117.718;2022-10-19T04:41:14;6.65;;;5.45;;
16524;SDS011;8375;33.594;-117.718;2022-10-19T04:43:43;12.27;;;6.45;;
16524;SDS011;8375;33.594;-117.718;2022-10-19T04:46:13;11.20;;;5.97;;
16524;SDS011;8375;33.594;-117.718;2022-10-19T04:48:42;11.85;;;6.43;;
16524;SDS011;8375;33.594;-117.718;2022-10-19T04:51:12;11.55;;;6.03;;
16524;SDS011;8375;33.594;-117.718;2022-10-19T12:23:16;2.33;;;1.45;;
16524;SDS011;8375;33.594;-117.718;2022-10-19T12:25:52;3.80;;;1.90;;
16524;SDS011;8375;33.594;-117.718;2022-10-19T12:28:24;1.67;;;1.20;;
16524;SDS011;8375;33.594;-117.718;2022-10-19T12:30:56;2.70;;;1.50;;
16524;SDS011;8375;33.594;-117.718;2022-10-19T12:33:28;6.83;;;1.80;;
16524;SDS011;8375;33.594;-117.718;2022-10-19T12:36:11;2.77;;;1.53;;
16524;SDS011;8375;33.594;-117.718;2022-10-19T12:38:51;3.03;;;1.67;;
16524;SDS011;8375;33.594;-117.718;2022-10-19T12:41:28;3.60;;;1.80;;
16524;SDS011;8375;33.594;-117.718;2022-10-19T12:44:08;5.37;;;1.90;;
16524;SDS011;8375;33.594;-117.718;2022-10-19T12:46:49;2.77;;;1.60;;
16524;SDS011;8375;33.594;-117.718;2022-10-19T12:49:34;2.87;;;1.47;;
16524;SDS011;8375;33.594;-117.718;2022-10-19T12:52:13;2.87;;;1.43;;
16524;SDS011;8375;33.594;-117.718;2022-10-19T12:55:11;3.07;;;1.70;;
16524;SDS011;8375;33.594;-117.718;2022-10-19T12:58:00;2.67;;;1.50;;
16524;SDS011;8375;33.594;-117.718;2022-10-19T13:00:32;3.07;;;1.30;;
16524;SDS011;8375;33.594;-117.718;2022-10-19T13:03:03;5.23;;;1.40;;
16524;SDS011;8375;33.594;-117.718;2022-10-19T13:05:33;2.87;;;1.47;;
16524;SDS011;8375;33.594;-117.718;2022-10-19T13:08:03;4.20;;;1.50;;
16524;SDS011;8375;33.594;-117.718;2022-10-19T13:10:34;2.93;;;1.67;;
16524;SDS011;8375;33.594;-117.718;2022-10-19T13:13:02;4.63;;;1.30;;
16524;SDS011;8375;33.594;-117.718;2022-10-19T13:21:42;5.70;;;2.37;;
16524;SDS011;8375;33.594;-117.718;2022-10-19T13:24:23;4.23;;;1.60;;
16524;SDS011;8375;33.594;-117.718;2022-10-19T13:29:52;1.93;;;1.27;;
16524;SDS011;8375;33.594;-117.718;2022-10-19T13:32:32;5.47;;;1.50;;
16524;SDS011;8375;33.594;-117.718;2022-10-19T13:35:21;1.80;;;1.47;;
16524;SDS011;8375;33.594;-117.718;2022-10-19T13:40:55;4.20;;;2.30;;
16524;SDS011;8375;33.594;-117.718;2022-10-19T13:43:36;3.87;;;2.33;;
16524;SDS011;8375;33.594;-117.718;2022-10-19T13:46:08;4.33;;;2.10;;
16524;SDS011;8375;33.594;-117.718;2022-10-19T13:48:53;4.10;;;2.17;;
16524;SDS011;8375;33.594;-117.718;2022-10-19T13:51:43;2.83;;;2.27;;
16524;SDS011;8375;33.594;-117.718;2022-10-19T13:54:28;3.23;;;2.00;;
16524;SDS011;8375;33.594;-117.718;2022-10-19T13:57:18;4.60;;;1.87;;
16524;SDS011;8375;33.594;-117.718;2022-10-19T14:00:08;6.73;;;2.57;;
16524;SDS011;8375;33.594;-117.718;2022-10-19T14:05:44;5.23;;;2.50;;
16524;SDS011;8375;33.594;-117.718;2022-10-19T14:08:29;3.17;;;2.30;;
16524;SDS011;8375;33.594;-117.718;2022-10-19T14:11:27;4.50;;;2.30;;
16524;SDS011;8375;33.594;-117.718;2022-10-19T14:14:12;2.77;;;2.27;;
16524;SDS011;8375;33.594;-117.718;2022-10-19T14:16:48;6.00;;;2.80;;
16524;SDS011;8375;33.594;-117.718;2022-10-19T14:19:22;5.03;;;2.40;;
16524;SDS011;8375;33.594;-117.718;2022-10-19T14:21:54;3.97;;;2.10;;
16524;SDS011;8375;33.594;-117.718;2022-10-19T14:24:27;4.40;;;2.87;;
16524;SDS011;8375;33.594;-117.718;2022-10-19T14:27:01;7.13;;;3.07;;
16524;SDS011;8375;33.594;-117.718;2022-10-19T14:29:32;3.60;;;2.30;;
16524;SDS011;8375;33.594;-117.718;2022-10-19T14:32:11;2.73;;;2.20;;
16524;SDS011;8375;33.594;-117.718;2022-10-19T14:34:40;7.33;;;2.80;;
16524;SDS011;8375;33.594;-117.718;2022-10-19T14:37:11;4.07;;;2.37;;
16524;SDS011;8375;33.594;-117.718;2022-10-19T14:39:56;6.70;;;2.40;;
16524;SDS011;8375;33.594;-117.718;2022-10-19T14:42:34;3.30;;;2.10;;
16524;SDS011;8375;33.594;-117.718;2022-10-19T14:45:15;3.30;;;2.40;;
16524;SDS011;8375;33.594;-117.718;2022-10-19T14:47:54;4.00;;;2.63;;
16524;SDS011;8375;33.594;-117.718;2022-10-19T14:50:33;5.43;;;3.30;;
16524;SDS011;8375;33.594;-117.718;2022-10-19T14:53:15;5.77;;;2.93;;
16524;SDS011;8375;33.594;-117.718;2022-10-19T14:55:50;4.43;;;2.53;;
16524;SDS011;8375;33.594;-117.718;2022-10-19T14:58:21;7.20;;;3.13;;
16524;SDS011;8375;33.594;-117.718;2022-10-19T15:00:53;6.30;;;3.10;;
16524;SDS011;8375;33.594;-117.718;2022-10-19T15:03:25;5.43;;;2.70;;
16524;SDS011;8375;33.594;-117.718;2022-10-19T15:05:55;3.80;;;2.90;;
16524;SDS011;8375;33.594;-117.718;2022-10-19T15:08:30;4.17;;;2.50;;
16524;SDS011;8375;33.594;-117.718;2022-10-19T15:11:05;6.80;;;2.63;;
16524;SDS011;8375;33.594;-117.718;2022-10-19T15:13:34;4.40;;;3.25;;
16524;SDS011;8375;33.594;-117.718;2022-10-19T15:19:03;5.73;;;2.87;;
16524;SDS011;8375;33.594;-117.718;2022-10-19T15:21:33;5.63;;;3.05;;
16524;SDS011;8375;33.594;-117.718;2022-10-19T15:24:05;2.67;;;2.45;;
16524;SDS011;8375;33.594;-117.718;2022-10-19T15:26:37;2.92;;;2.40;;
16524;SDS011;8375;33.594;-117.718;2022-10-19T15:29:06;4.22;;;2.42;;
16524;SDS011;8375;33.594;-117.718;2022-10-19T15:31:37;5.65;;;2.50;;
16524;SDS011;8375;33.594;-117.718;2022-10-19T15:34:19;3.70;;;2.60;;
16524;SDS011;8375;33.594;-117.718;2022-10-19T15:36:56;5.60;;;2.78;;
16524;SDS011;8375;33.594;-117.718;2022-10-19T15:39:27;5.57;;;2.35;;
16524;SDS011;8375;33.594;-117.718;2022-10-19T15:44:59;4.35;;;2.30;;
16524;SDS011;8375;33.594;-117.718;2022-10-19T15:47:28;5.63;;;2.30;;
16524;SDS011;8375;33.594;-117.718;2022-10-19T15:49:58;6.63;;;2.03;;
16524;SDS011;8375;33.594;-117.718;2022-10-19T15:52:30;3.25;;;2.33;;
16524;SDS011;8375;33.594;-117.718;2022-10-19T15:54:59;4.93;;;2.10;;
16524;SDS011;8375;33.594;-117.718;2022-10-19T15:57:29;5.55;;;2.05;;
16524;SDS011;8375;33.594;-117.718;2022-10-19T15:59:59;3.38;;;2.35;;
16524;SDS011;8375;33.594;-117.718;2022-10-19T16:02:33;4.85;;;1.92;;
16524;SDS011;8375;33.594;-117.718;2022-10-19T16:05:04;5.03;;;2.42;;
16524;SDS011;8375;33.594;-117.718;2022-10-19T16:07:36;4.40;;;1.90;;
16524;SDS011;8375;33.594;-117.718;2022-10-19T16:10:07;2.53;;;1.80;;
16524;SDS011;8375;33.594;-117.718;2022-10-19T16:12:40;4.18;;;2.28;;
16524;SDS011;8375;33.594;-117.718;2022-10-19T16:15:10;3.25;;;1.90;;
16524;SDS011;8375;33.594;-117.718;2022-10-19T16:17:40;3.50;;;2.10;;
16524;SDS011;8375;33.594;-117.718;2022-10-19T16:20:13;2.08;;;1.75;;
16524;SDS011;8375;33.594;-117.718;2022-10-19T16:22:42;3.22;;;1.77;;
16524;SDS011;8375;33.594;-117.718;2022-10-19T16:25:11;2.78;;;1.92;;
16524;SDS011;8375;33.594;-117.718;2022-10-19T16:27:40;2.45;;;1.80;;
16524;SDS011;8375;33.594;-117.718;2022-10-19T16:30:09;3.88;;;1.65;;
16524;SDS011;8375;33.594;-117.718;2022-10-19T16:32:38;4.88;;;1.38;;
16524;SDS011;8375;33.594;-117.718;2022-10-19T16:35:07;2.03;;;1.27;;
16524;SDS011;8375;33.594;-117.718;2022-10-19T16:37:38;1.75;;;1.33;;
16524;SDS011;8375;33.594;-117.718;2022-10-19T16:40:07;2.83;;;1.00;;
16524;SDS011;8375;33.594;-117.718;2022-10-19T16:42:36;2.47;;;1.15;;
16524;SDS011;8375;33.594;-117.718;2022-10-19T16:45:05;3.03;;;1.25;;
16524;SDS011;8375;33.594;-117.718;2022-10-19T16:47:34;4.85;;;1.15;;
16524;SDS011;8375;33.594;-117.718;2022-10-19T16:50:04;3.13;;;1.10;;
16524;SDS011;8375;33.594;-117.718;2022-10-19T16:52:33;4.20;;;1.08;;
16524;SDS011;8375;33.594;-117.718;2022-10-19T16:55:03;1.48;;;1.00;;
16524;SDS011;8375;33.594;-117.718;2022-10-19T16:57:32;1.98;;;1.00;;
16524;SDS011;8375;33.594;-117.718;2022-10-19T17:00:02;2.38;;;0.90;;
16524;SDS011;8375;33.594;-117.718;2022-10-19T17:02:31;2.83;;;1.10;;
16524;SDS011;8375;33.594;-117.718;2022-10-19T17:05:00;2.45;;;0.70;;
16524;SDS011;8375;33.594;-117.718;2022-10-19T17:07:28;1.27;;;0.98;;
16524;SDS011;8375;33.594;-117.718;2022-10-19T17:09:57;1.85;;;1.00;;
16524;SDS011;8375;33.594;-117.718;2022-10-19T17:12:27;3.95;;;1.25;;
16524;SDS011;8375;33.594;-117.718;2022-10-19T17:14:56;2.50;;;1.00;;
16524;SDS011;8375;33.594;-117.718;2022-10-19T17:17:24;3.50;;;1.48;;
16524;SDS011;8375;33.594;-117.718;2022-10-19T17:19:53;2.38;;;0.80;;
16524;SDS011;8375;33.594;-117.718;2022-10-19T17:22:21;2.50;;;0.80;;
16524;SDS011;8375;33.594;-117.718;2022-10-19T17:24:50;1.65;;;0.85;;
16524;SDS011;8375;33.594;-117.718;2022-10-19T17:27:20;2.58;;;0.95;;
16524;SDS011;8375;33.594;-117.718;2022-10-19T17:29:50;2.88;;;0.70;;
16524;SDS011;8375;33.594;-117.718;2022-10-19T17:32:19;1.95;;;0.60;;
16524;SDS011;8375;33.594;-117.718;2022-10-19T17:34:48;0.77;;;0.50;;
16524;SDS011;8375;33.594;-117.718;2022-10-19T17:37:16;2.05;;;0.80;;
16524;SDS011;8375;33.594;-117.718;2022-10-19T17:39:48;1.90;;;0.75;;
16524;SDS011;8375;33.594;-117.718;2022-10-19T17:42:17;1.10;;;0.60;;
16524;SDS011;8375;33.594;-117.718;2022-10-19T17:44:45;1.33;;;0.60;;
16524;SDS011;8375;33.594;-117.718;2022-10-19T17:47:15;0.70;;;0.70;;
16524;SDS011;8375;33.594;-117.718;2022-10-19T17:49:44;3.70;;;0.68;;
16524;SDS011;8375;33.594;-117.718;2022-10-19T17:52:12;2.08;;;0.70;;
16524;SDS011;8375;33.594;-117.718;2022-10-19T17:54:41;1.65;;;0.80;;
16524;SDS011;8375;33.594;-117.718;2022-10-19T17:57:10;1.52;;;0.55;;
16524;SDS011;8375;33.594;-117.718;2022-10-19T17:59:38;0.75;;;0.70;;
16524;SDS011;8375;33.594;-117.718;2022-10-19T18:02:08;4.32;;;0.88;;
16524;SDS011;8375;33.594;-117.718;2022-10-19T18:04:38;1.35;;;0.73;;
16524;SDS011;8375;33.594;-117.718;2022-10-19T18:07:07;0.73;;;0.70;;
16524;SDS011;8375;33.594;-117.718;2022-10-19T18:09:38;0.50;;;0.50;;
16524;SDS011;8375;33.594;-117.718;2022-10-19T18:12:06;1.02;;;0.68;;
16524;SDS011;8375;33.594;-117.718;2022-10-19T18:14:38;2.88;;;0.80;;
16524;SDS011;8375;33.594;-117.718;2022-10-19T18:17:06;3.20;;;0.80;;
16524;SDS011;8375;33.594;-117.718;2022-10-19T18:19:35;1.17;;;0.68;;
16524;SDS011;8375;33.594;-117.718;2022-10-19T18:22:05;1.75;;;0.80;;
16524;SDS011;8375;33.594;-117.718;2022-10-19T18:24:34;1.15;;;0.50;;
16524;SDS011;8375;33.594;-117.718;2022-10-19T18:27:02;1.00;;;0.45;;
16524;SDS011;8375;33.594;-117.718;2022-10-19T18:29:31;1.85;;;0.60;;
16524;SDS011;8375;33.594;-117.718;2022-10-19T18:32:00;1.00;;;0.70;;
16524;SDS011;8375;33.594;-117.718;2022-10-19T18:34:29;1.08;;;0.60;;
16524;SDS011;8375;33.594;-117.718;2022-10-19T18:36:57;1.27;;;0.70;;
16524;SDS011;8375;33.594;-117.718;2022-10-19T18:39:28;2.05;;;0.70;;
16524;SDS011;8375;33.594;-117.718;2022-10-19T18:41:56;1.65;;;0.68;;
16524;SDS011;8375;33.594;-117.718;2022-10-19T18:44:25;1.80;;;0.98;;
16524;SDS011;8375;33.594;-117.718;2022-10-19T18:46:54;1.67;;;0.80;;
16524;SDS011;8375;33.594;-117.718;2022-10-19T18:49:23;1.02;;;0.70;;
16524;SDS011;8375;33.594;-117.718;2022-10-19T18:51:51;1.83;;;0.80;;
16524;SDS011;8375;33.594;-117.718;2022-10-19T18:54:20;1.05;;;0.70;;
16524;SDS011;8375;33.594;-117.718;2022-10-19T18:56:50;1.17;;;0.65;;
16524;SDS011;8375;33.594;-117.718;2022-10-19T18:59:19;1.48;;;0.70;;
16524;SDS011;8375;33.594;-117.718;2022-10-19T19:01:47;1.75;;;0.75;;
16524;SDS011;8375;33.594;-117.718;2022-10-19T19:04:16;1.70;;;0.73;;
16524;SDS011;8375;33.594;-117.718;2022-10-19T19:06:44;2.40;;;0.90;;
16524;SDS011;8375;33.594;-117.718;2022-10-19T19:09:13;1.95;;;0.73;;
16524;SDS011;8375;33.594;-117.718;2022-10-19T19:11:42;3.85;;;1.00;;
16524;SDS011;8375;33.594;-117.718;2022-10-19T19:14:12;1.67;;;1.13;;
16524;SDS011;8375;33.594;-117.718;2022-10-19T19:16:42;2.03;;;0.70;;
16524;SDS011;8375;33.594;-117.718;2022-10-19T19:19:12;1.30;;;0.73;;
16524;SDS011;8375;33.594;-117.718;2022-10-19T19:21:43;1.42;;;0.60;;
16524;SDS011;8375;33.594;-117.718;2022-10-19T19:24:14;1.58;;;0.90;;
16524;SDS011;8375;33.594;-117.718;2022-10-19T19:26:44;1.48;;;0.70;;
16524;SDS011;8375;33.594;-117.718;2022-10-19T19:29:16;1.38;;;0.70;;
16524;SDS011;8375;33.594;-117.718;2022-10-19T19:31:46;1.95;;;1.00;;
16524;SDS011;8375;33.594;-117.718;2022-10-19T19:34:14;1.00;;;0.75;;
16524;SDS011;8375;33.594;-117.718;2022-10-19T19:36:43;3.83;;;1.00;;
16524;SDS011;8375;33.594;-117.718;2022-10-19T19:39:12;5.50;;;1.08;;
16524;SDS011;8375;33.594;-117.718;2022-10-19T19:41:43;0.68;;;0.65;;
16524;SDS011;8375;33.594;-117.718;2022-10-19T19:44:11;7.00;;;1.63;;
16524;SDS011;8375;33.594;-117.718;2022-10-19T19:46:42;2.30;;;0.68;;
16524;SDS011;8375;33.594;-117.718;2022-10-19T19:49:10;3.42;;;1.25;;
16524;SDS011;8375;33.594;-117.718;2022-10-19T19:51:39;1.58;;;0.80;;
16524;SDS011;8375;33.594;-117.718;2022-10-19T19:54:07;1.75;;;0.65;;
16524;SDS011;8375;33.594;-117.718;2022-10-19T19:56:36;1.50;;;0.75;;
16524;SDS011;8375;33.594;-117.718;2022-10-19T19:59:07;1.00;;;0.60;;
16524;SDS011;8375;33.594;-117.718;2022-10-19T20:01:37;1.17;;;0.82;;
16524;SDS011;8375;33.594;-117.718;2022-10-19T20:04:07;1.10;;;0.75;;
16524;SDS011;8375;33.594;-117.718;2022-10-19T20:06:37;1.15;;;0.70;;
16524;SDS011;8375;33.594;-117.718;2022-10-19T20:09:07;1.40;;;0.60;;
16524;SDS011;8375;33.594;-117.718;2022-10-19T20:11:36;1.85;;;0.88;;
16524;SDS011;8375;33.594;-117.718;2022-10-19T20:14:05;0.68;;;0.60;;
16524;SDS011;8375;33.594;-117.718;2022-10-19T20:16:33;1.13;;;0.73;;
16524;SDS011;8375;33.594;-117.718;2022-10-19T20:19:04;1.10;;;0.70;;
16524;SDS011;8375;33.594;-117.718;2022-10-19T20:21:35;2.65;;;0.70;;
16524;SDS011;8375;33.594;-117.718;2022-10-19T20:24:04;0.98;;;0.70;;
16524;SDS011;8375;33.594;-117.718;2022-10-19T20:26:33;2.33;;;0.70;;
16524;SDS011;8375;33.594;-117.718;2022-10-19T20:29:02;0.98;;;0.70;;
16524;SDS011;8375;33.594;-117.718;2022-10-19T20:31:31;1.90;;;0.90;;
16524;SDS011;8375;33.594;-117.718;2022-10-19T20:34:06;2.28;;;0.80;;
16524;SDS011;8375;33.594;-117.718;2022-10-19T20:36:37;2.25;;;0.70;;
16524;SDS011;8375;33.594;-117.718;2022-10-19T20:39:06;1.65;;;0.68;;
16524;SDS011;8375;33.594;-117.718;2022-10-19T20:41:35;1.40;;;0.80;;
16524;SDS011;8375;33.594;-117.718;2022-10-19T20:44:04;1.08;;;0.80;;
16524;SDS011;8375;33.594;-117.718;2022-10-19T20:46:32;1.10;;;0.70;;
16524;SDS011;8375;33.594;-117.718;2022-10-19T20:49:01;2.05;;;0.80;;
16524;SDS011;8375;33.594;-117.718;2022-10-19T20:51:32;0.60;;;0.60;;
16524;SDS011;8375;33.594;-117.718;2022-10-19T20:54:05;1.10;;;0.80;;
16524;SDS011;8375;33.594;-117.718;2022-10-19T20:56:36;1.52;;;0.80;;
16524;SDS011;8375;33.594;-117.718;2022-10-19T20:59:06;0.93;;;0.80;;
16524;SDS011;8375;33.594;-117.718;2022-10-19T21:01:37;1.42;;;0.70;;
16524;SDS011;8375;33.594;-117.718;2022-10-19T21:04:08;1.90;;;0.70;;
16524;SDS011;8375;33.594;-117.718;2022-10-19T21:06:39;0.80;;;0.70;;
16524;SDS011;8375;33.594;-117.718;2022-10-19T21:09:10;0.70;;;0.68;;
16524;SDS011;8375;33.594;-117.718;2022-10-19T21:11:40;2.40;;;0.70;;
16524;SDS011;8375;33.594;-117.718;2022-10-19T21:14:10;1.55;;;0.75;;
16524;SDS011;8375;33.594;-117.718;2022-10-19T21:16:40;1.55;;;0.80;;
16524;SDS011;8375;33.594;-117.718;2022-10-19T21:19:10;2.42;;;0.95;;
16524;SDS011;8375;33.594;-117.718;2022-10-19T21:21:40;1.90;;;0.80;;
16524;SDS011;8375;33.594;-117.718;2022-10-19T21:24:12;3.70;;;0.90;;
16524;SDS011;8375;33.594;-117.718;2022-10-19T21:26:42;2.65;;;0.77;;
16524;SDS011;8375;33.594;-117.718;2022-10-19T21:29:10;1.58;;;0.80;;
16524;SDS011;8375;33.594;-117.718;2022-10-19T21:31:40;1.10;;;0.73;;
16524;SDS011;8375;33.594;-117.718;2022-10-19T21:34:10;1.60;;;0.70;;
16524;SDS011;8375;33.594;-117.718;2022-10-19T21:36:40;4.70;;;0.70;;
16524;SDS011;8375;33.594;-117.718;2022-10-19T21:39:09;1.50;;;0.60;;
16524;SDS011;8375;33.594;-117.718;2022-10-19T21:41:39;2.08;;;0.80;;
16524;SDS011;8375;33.594;-117.718;2022-10-19T21:44:08;2.47;;;0.80;;
16524;SDS011;8375;33.594;-117.718;2022-10-19T21:46:37;4.05;;;0.80;;
16524;SDS011;8375;33.594;-117.718;2022-10-19T21:49:08;1.80;;;0.80;;
16524;SDS011;8375;33.594;-117.718;2022-10-19T21:51:38;1.85;;;0.70;;
16524;SDS011;8375;33.594;-117.718;2022-10-19T21:54:13;1.58;;;0.60;;
16524;SDS011;8375;33.594;-117.718;2022-10-19T21:56:43;1.02;;;0.70;;
16524;SDS011;8375;33.594;-117.718;2022-10-19T21:59:12;2.55;;;0.70;;
16524;SDS011;8375;33.594;-117.718;2022-10-19T22:01:41;1.77;;;0.60;;
16524;SDS011;8375;33.594;-117.718;2022-10-19T22:04:10;1.20;;;0.80;;
16524;SDS011;8375;33.594;-117.718;2022-10-19T22:06:40;1.20;;;0.90;;
16524;SDS011;8375;33.594;-117.718;2022-10-19T22:09:11;2.15;;;0.75;;
16524;SDS011;8375;33.594;-117.718;2022-10-19T22:11:42;2.05;;;0.60;;
16524;SDS011;8375;33.594;-117.718;2022-10-19T22:14:12;0.95;;;0.70;;
16524;SDS011;8375;33.594;-117.718;2022-10-19T22:16:42;2.13;;;0.88;;
16524;SDS011;8375;33.594;-117.718;2022-10-19T22:19:11;1.05;;;0.70;;
16524;SDS011;8375;33.594;-117.718;2022-10-19T22:21:40;2.78;;;0.80;;
16524;SDS011;8375;33.594;-117.718;2022-10-19T22:24:10;1.90;;;0.60;;
16524;SDS011;8375;33.594;-117.718;2022-10-19T22:26:42;3.65;;;0.70;;
16524;SDS011;8375;33.594;-117.718;2022-10-19T22:29:11;2.15;;;0.80;;
16524;SDS011;8375;33.594;-117.718;2022-10-19T22:31:40;4.53;;;2.00;;
16524;SDS011;8375;33.594;-117.718;2022-10-19T22:34:09;12.63;;;3.97;;
16524;SDS011;8375;33.594;-117.718;2022-10-19T22:36:39;2.10;;;0.88;;
16524;SDS011;8375;33.594;-117.718;2022-10-19T22:39:08;2.30;;;0.70;;
16524;SDS011;8375;33.594;-117.718;2022-10-19T22:44:43;1.50;;;0.73;;
16524;SDS011;8375;33.594;-117.718;2022-10-19T22:47:11;1.70;;;0.80;;
16524;SDS011;8375;33.594;-117.718;2022-10-19T22:49:40;2.97;;;0.73;;